createdAt,value
2022-09-12T00:02:46.951Z,100082
2022-09-12T00:07:46.902Z,100081
2022-09-12T00:12:46.933Z,100076
2022-09-12T00:17:46.920Z,100088
2022-09-12T00:22:46.942Z,100082
2022-09-12T00:27:46.915Z,100079
2022-09-12T00:32:46.953Z,100082
2022-09-12T00:37:46.911Z,100082
2022-09-12T00:42:47.022Z,100077
2022-09-12T00:47:46.963Z,100081
2022-09-12T00:52:46.958Z,100075
2022-09-12T00:57:46.956Z,100069
2022-09-12T01:02:46.964Z,100069
2022-09-12T01:07:46.941Z,100071
2022-09-12T01:12:46.953Z,100071
2022-09-12T01:17:46.966Z,100073
2022-09-12T01:22:46.967Z,100074
2022-09-12T01:27:46.952Z,100071
2022-09-12T01:32:46.985Z,100071
2022-09-12T01:42:47.028Z,100079
2022-09-12T01:47:46.990Z,100074
2022-09-12T01:52:46.968Z,100066
2022-09-12T01:57:46.987Z,100066
2022-09-12T02:02:47.074Z,100060
2022-09-12T02:07:46.940Z,100060
2022-09-12T02:12:47.011Z,100057
2022-09-12T02:17:47.015Z,100060
2022-09-12T02:22:47.007Z,100060
2022-09-12T02:32:47.016Z,100073
2022-09-12T02:37:47.001Z,100070
2022-09-12T02:42:47.007Z,100069
2022-09-12T02:47:47.021Z,100062
2022-09-12T02:52:47.010Z,100070
2022-09-12T02:57:46.984Z,100069
2022-09-12T03:02:47.021Z,100068
2022-09-12T03:07:46.970Z,100070
2022-09-12T03:12:47.012Z,100079
2022-09-12T03:17:46.977Z,100080
2022-09-12T03:22:50.941Z,100082
2022-09-12T03:27:47.007Z,100073
2022-09-12T03:32:47.040Z,100079
2022-09-12T03:37:47.015Z,100077
2022-09-12T03:42:47.061Z,100084
2022-09-12T03:47:47.117Z,100070
2022-09-12T03:52:47.020Z,100078
2022-09-12T03:57:47.022Z,100084
2022-09-12T04:02:47.060Z,100085
2022-09-12T04:07:47.035Z,100090
2022-09-12T04:12:47.029Z,100083
2022-09-12T04:17:47.073Z,100089
2022-09-12T04:22:47.055Z,100089
2022-09-12T04:27:47.062Z,100091
2022-09-12T04:32:47.076Z,100081
2022-09-12T04:37:47.014Z,100081
2022-09-12T04:42:47.034Z,100085
2022-09-12T04:47:47.082Z,100078
2022-09-12T04:52:47.054Z,100077
2022-09-12T04:57:47.043Z,100089
2022-09-12T05:02:47.076Z,100087
2022-09-12T05:07:47.064Z,100095
2022-09-12T05:12:47.065Z,100099
2022-09-12T05:17:47.040Z,100098
2022-09-12T05:22:47.071Z,100110
2022-09-12T05:27:50.470Z,100121
2022-09-12T05:32:47.093Z,100136
2022-09-12T05:37:47.081Z,100136
2022-09-12T05:42:47.072Z,100137
2022-09-12T05:47:47.153Z,100136
2022-09-12T05:52:47.088Z,100143
2022-09-12T05:57:47.087Z,100142
2022-09-12T06:02:47.073Z,100143
2022-09-12T06:07:47.161Z,100143
2022-09-12T06:12:47.139Z,100145
2022-09-12T06:17:51.194Z,100143
2022-09-12T06:22:47.346Z,100146
2022-09-12T06:27:47.091Z,100150
2022-09-12T06:32:47.131Z,100154
2022-09-12T06:37:47.096Z,100154
2022-09-12T06:42:47.110Z,100149
2022-09-12T06:47:47.071Z,100152
2022-09-12T06:52:47.117Z,100149
2022-09-12T06:57:47.141Z,100160
2022-09-12T07:02:47.139Z,100163
2022-09-12T07:07:47.138Z,100161
2022-09-12T07:12:47.160Z,100165
2022-09-12T07:17:47.139Z,100170
2022-09-12T07:22:47.094Z,100164
2022-09-12T07:27:51.132Z,100171
2022-09-12T07:32:47.103Z,100179
2022-09-12T07:37:47.128Z,100180
2022-09-12T07:42:47.133Z,100181
2022-09-12T07:47:47.154Z,100179
2022-09-12T07:52:47.146Z,100181
2022-09-12T07:57:47.199Z,100183
2022-09-12T08:02:47.201Z,100180
2022-09-12T08:07:47.157Z,100173
2022-09-12T08:12:47.165Z,100166
2022-09-12T08:17:47.235Z,100172
2022-09-12T08:22:47.217Z,100170
2022-09-12T08:27:47.200Z,100166
2022-09-12T08:32:47.170Z,100171
2022-09-12T08:37:47.159Z,100159
2022-09-12T08:42:47.155Z,100162
2022-09-12T08:47:47.162Z,100169
2022-09-12T08:52:47.179Z,100160
2022-09-12T08:57:47.176Z,100155
2022-09-12T09:02:47.284Z,100157
2022-09-12T09:07:47.145Z,100152
2022-09-12T09:12:47.176Z,100154
2022-09-12T09:17:47.142Z,100149
2022-09-12T09:22:47.174Z,100149
2022-09-12T09:27:47.187Z,100155
2022-09-12T09:32:47.223Z,100155
2022-09-12T09:37:47.178Z,100148
2022-09-12T09:42:47.332Z,100146
2022-09-12T09:47:47.167Z,100148
2022-09-12T09:52:47.180Z,100140
2022-09-12T09:57:47.231Z,100140
2022-09-12T10:02:47.252Z,100140
2022-09-12T10:07:47.251Z,100141
2022-09-12T10:12:47.206Z,100149
2022-09-12T10:17:47.197Z,100149
2022-09-12T10:22:47.231Z,100157
2022-09-12T10:27:47.241Z,100154
2022-09-12T10:32:47.237Z,100153
2022-09-12T10:37:51.771Z,100146
2022-09-12T10:42:47.242Z,100149
2022-09-12T10:47:47.201Z,100137
2022-09-12T10:52:47.226Z,100139
2022-09-12T10:57:47.221Z,100126
2022-09-12T11:02:47.378Z,100123
2022-09-12T11:07:47.241Z,100121
2022-09-12T11:12:47.272Z,100120
2022-09-12T11:17:47.260Z,100111
2022-09-12T11:22:47.237Z,100111
2022-09-12T11:27:47.283Z,100110
2022-09-12T11:32:47.252Z,100106
2022-09-12T11:37:47.246Z,100111
2022-09-12T11:42:47.255Z,100121
2022-09-12T11:47:47.263Z,100125
2022-09-12T11:52:47.227Z,100129
2022-09-12T11:57:47.276Z,100135
2022-09-12T12:02:47.582Z,100134
2022-09-12T12:07:47.286Z,100126
2022-09-12T12:12:47.250Z,100131
2022-09-12T12:17:47.286Z,100124
2022-09-12T12:22:47.261Z,100115
2022-09-12T12:27:47.294Z,100105
2022-09-12T12:32:47.284Z,100103
2022-09-12T12:42:49.297Z,100103
2022-09-12T12:47:47.333Z,100104
2022-09-12T12:52:47.288Z,100096
2022-09-12T12:57:47.270Z,100098
2022-09-12T13:02:47.375Z,100095
2022-09-12T13:07:47.295Z,100095
2022-09-12T13:17:47.311Z,100092
2022-09-12T13:22:47.289Z,100077
2022-09-12T13:27:47.330Z,100070
2022-09-12T13:32:47.323Z,100062
2022-09-12T13:37:51.256Z,100060
2022-09-12T13:42:47.347Z,100059
2022-09-12T13:47:47.322Z,100048
2022-09-12T13:52:47.328Z,100048
2022-09-12T13:57:47.346Z,100043
2022-09-12T14:02:47.371Z,100039
2022-09-12T14:07:47.315Z,100052
2022-09-12T14:12:47.558Z,100036
2022-09-12T14:17:47.350Z,100046
2022-09-12T14:22:50.927Z,100042
2022-09-12T14:27:47.338Z,100039
2022-09-12T14:32:47.336Z,100041
2022-09-12T14:37:47.540Z,100040
2022-09-12T14:42:47.352Z,100047
2022-09-12T14:47:47.364Z,100045
2022-09-12T14:52:47.442Z,100043
2022-09-12T14:57:47.387Z,100035
2022-09-12T15:02:47.330Z,100031
2022-09-12T15:07:47.400Z,100031
2022-09-12T15:17:47.375Z,100035
2022-09-12T15:22:47.394Z,100032
2022-09-12T15:27:47.343Z,100038
2022-09-12T15:32:47.433Z,100037
2022-09-12T15:47:47.420Z,100030
2022-09-12T15:52:47.445Z,100030
2022-09-12T15:57:47.378Z,100030
2022-09-12T16:02:47.501Z,100030
2022-09-12T16:07:47.385Z,100030
2022-09-12T16:12:47.419Z,100044
2022-09-12T16:17:47.375Z,100051
2022-09-12T16:22:47.467Z,100046
2022-09-12T16:27:47.375Z,100050
2022-09-12T16:32:47.405Z,100049
2022-09-12T16:37:47.433Z,100049
2022-09-12T16:42:47.414Z,100053
2022-09-12T16:47:47.392Z,100054
2022-09-12T16:52:47.447Z,100054
2022-09-12T16:57:47.580Z,100047
2022-09-12T17:02:47.556Z,100047
2022-09-12T17:07:47.450Z,100062
2022-09-12T17:12:47.486Z,100056
2022-09-12T17:17:47.457Z,100049
2022-09-12T17:22:47.489Z,100061
2022-09-12T17:27:47.429Z,100064
2022-09-12T17:32:47.620Z,100074
2022-09-12T17:37:47.738Z,100081
2022-09-12T17:42:47.514Z,100082
2022-09-12T17:47:47.670Z,100085
2022-09-12T17:52:47.571Z,100085
2022-09-12T17:57:47.555Z,100095
2022-09-12T18:02:47.551Z,100095
2022-09-12T18:07:47.876Z,100110
2022-09-12T18:12:47.649Z,100113
2022-09-12T18:17:47.795Z,100115
2022-09-12T18:22:47.718Z,100115
2022-09-12T18:27:47.447Z,100112
2022-09-12T18:32:47.803Z,100112
2022-09-12T18:37:47.809Z,100118
2022-09-12T18:42:47.833Z,100118
2022-09-12T18:47:47.591Z,100115
2022-09-12T18:52:47.772Z,100115
2022-09-12T18:57:47.846Z,100123
2022-09-12T19:02:47.778Z,100127
2022-09-12T19:07:47.667Z,100132
2022-09-12T19:12:49.818Z,100132
2022-09-12T19:17:47.675Z,100139
2022-09-12T19:22:49.792Z,100140
2022-09-12T19:27:49.641Z,100136
2022-09-12T19:32:47.673Z,100136
2022-09-12T19:37:47.618Z,100148
2022-09-12T19:47:47.750Z,100137
2022-09-12T19:52:47.681Z,100136
2022-09-12T19:57:47.563Z,100140
2022-09-12T20:02:47.933Z,100130
2022-09-12T20:07:47.479Z,100130
2022-09-12T20:12:47.619Z,100126
2022-09-12T20:17:47.690Z,100126
2022-09-12T20:22:47.642Z,100120
2022-09-12T20:27:47.495Z,100127
2022-09-12T20:32:47.607Z,100127
2022-09-12T20:37:47.499Z,100125
2022-09-12T20:42:47.530Z,100132
2022-09-12T20:47:47.524Z,100135
2022-09-12T20:52:47.539Z,100148
2022-09-12T20:57:47.526Z,100155
2022-09-12T21:02:47.738Z,100157
2022-09-12T21:07:47.558Z,100160
2022-09-12T21:12:47.577Z,100161
2022-09-12T21:17:47.558Z,100161
2022-09-12T21:22:47.559Z,100162
2022-09-12T21:27:47.531Z,100166
2022-09-12T21:32:47.551Z,100165
2022-09-12T21:37:47.561Z,100171
2022-09-12T21:42:47.735Z,100182
2022-09-12T21:47:47.543Z,100190
2022-09-12T21:52:47.550Z,100190
2022-09-12T21:57:47.571Z,100200
2022-09-12T22:02:47.597Z,100207
2022-09-12T22:07:47.577Z,100205
2022-09-12T22:12:47.660Z,100207
2022-09-12T22:17:47.548Z,100202
2022-09-12T22:22:47.581Z,100197
2022-09-12T22:27:47.594Z,100196
2022-09-12T22:32:47.781Z,100190
2022-09-12T22:42:47.598Z,100196
2022-09-12T22:47:47.556Z,100190
2022-09-12T22:52:47.596Z,100194
2022-09-12T22:57:47.614Z,100203
2022-09-12T23:02:47.607Z,100203
2022-09-12T23:07:47.601Z,100203
2022-09-12T23:12:47.606Z,100199
2022-09-12T23:17:47.601Z,100200
2022-09-12T23:22:47.575Z,100192
2022-09-12T23:27:47.603Z,100188
2022-09-12T23:32:47.591Z,100187
2022-09-12T23:37:47.627Z,100189
2022-09-12T23:42:47.627Z,100186
2022-09-12T23:47:47.605Z,100188
2022-09-12T23:52:47.624Z,100190
2022-09-12T23:57:47.622Z,100187
